sensor_id;sensor_type;location;lat;lon;timestamp;temperature;humidity
26342;DHT22;14054;50.108;8.640;2023-04-29T00:01:59;13.70;99.90
26342;DHT22;14054;50.108;8.640;2023-04-29T00:04:25;13.60;99.90
26342;DHT22;14054;50.108;8.640;2023-04-29T00:06:50;13.60;99.90
26342;DHT22;14054;50.108;8.640;2023-04-29T00:09:16;13.60;99.90
26342;DHT22;14054;50.108;8.640;2023-04-29T00:11:41;13.50;99.90
26342;DHT22;14054;50.108;8.640;2023-04-29T00:14:07;13.50;99.90
26342;DHT22;14054;50.108;8.640;2023-04-29T00:16:32;13.40;99.90
26342;DHT22;14054;50.108;8.640;2023-04-29T00:18:58;13.40;99.90
26342;DHT22;14054;50.108;8.640;2023-04-29T00:21:24;13.30;99.90
26342;DHT22;14054;50.108;8.640;2023-04-29T00:23:49;13.30;99.90
26342;DHT22;14054;50.108;8.640;2023-04-29T00:26:15;13.20;99.90
26342;DHT22;14054;50.108;8.640;2023-04-29T00:28:40;13.20;99.90
26342;DHT22;14054;50.108;8.640;2023-04-29T00:31:06;13.20;99.90
26342;DHT22;14054;50.108;8.640;2023-04-29T00:33:31;13.10;99.90
26342;DHT22;14054;50.108;8.640;2023-04-29T00:35:57;13.10;99.90
26342;DHT22;14054;50.108;8.640;2023-04-29T00:38:22;13.00;99.90
26342;DHT22;14054;50.108;8.640;2023-04-29T00:40:48;13.00;99.90
26342;DHT22;14054;50.108;8.640;2023-04-29T00:43:13;12.90;99.90
26342;DHT22;14054;50.108;8.640;2023-04-29T00:45:39;12.90;99.90
26342;DHT22;14054;50.108;8.640;2023-04-29T00:48:04;12.90;99.90
26342;DHT22;14054;50.108;8.640;2023-04-29T00:50:30;12.90;99.90
26342;DHT22;14054;50.108;8.640;2023-04-29T00:52:55;12.80;99.90
26342;DHT22;14054;50.108;8.640;2023-04-29T00:55:21;12.70;99.90
26342;DHT22;14054;50.108;8.640;2023-04-29T00:57:48;12.80;99.90
26342;DHT22;14054;50.108;8.640;2023-04-29T01:00:16;12.80;99.90
26342;DHT22;14054;50.108;8.640;2023-04-29T01:02:43;12.80;99.90
26342;DHT22;14054;50.108;8.640;2023-04-29T01:05:09;13.20;99.90
26342;DHT22;14054;50.108;8.640;2023-04-29T01:10:02;13.00;99.90
26342;DHT22;14054;50.108;8.640;2023-04-29T01:12:37;12.70;99.90
26342;DHT22;14054;50.108;8.640;2023-04-29T01:15:21;12.80;99.90
26342;DHT22;14054;50.108;8.640;2023-04-29T01:20:16;12.70;99.90
26342;DHT22;14054;50.108;8.640;2023-04-29T01:22:42;12.70;99.90
26342;DHT22;14054;50.108;8.640;2023-04-29T01:25:08;12.90;99.90
26342;DHT22;14054;50.108;8.640;2023-04-29T01:32:30;12.90;99.90
26342;DHT22;14054;50.108;8.640;2023-04-29T01:34:59;12.80;99.90
26342;DHT22;14054;50.108;8.640;2023-04-29T01:37:34;12.90;99.90
26342;DHT22;14054;50.108;8.640;2023-04-29T01:40:16;12.90;99.90
26342;DHT22;14054;50.108;8.640;2023-04-29T01:42:52;12.90;99.90
26342;DHT22;14054;50.108;8.640;2023-04-29T01:45:20;12.90;99.90
26342;DHT22;14054;50.108;8.640;2023-04-29T01:47:45;12.90;99.90
26342;DHT22;14054;50.108;8.640;2023-04-29T01:50:11;12.80;99.90
26342;DHT22;14054;50.108;8.640;2023-04-29T01:52:37;12.80;99.90
26342;DHT22;14054;50.108;8.640;2023-04-29T01:55:03;12.80;99.90
26342;DHT22;14054;50.108;8.640;2023-04-29T01:57:28;12.80;99.90
26342;DHT22;14054;50.108;8.640;2023-04-29T01:59:54;12.90;99.90
26342;DHT22;14054;50.108;8.640;2023-04-29T02:02:19;12.80;99.90
26342;DHT22;14054;50.108;8.640;2023-04-29T02:04:47;12.80;99.90
26342;DHT22;14054;50.108;8.640;2023-04-29T02:07:13;12.80;99.90
26342;DHT22;14054;50.108;8.640;2023-04-29T02:09:39;12.90;99.90
26342;DHT22;14054;50.108;8.640;2023-04-29T02:12:04;12.80;99.90
26342;DHT22;14054;50.108;8.640;2023-04-29T02:14:30;12.70;99.90
26342;DHT22;14054;50.108;8.640;2023-04-29T02:16:55;12.70;99.90
26342;DHT22;14054;50.108;8.640;2023-04-29T02:19:21;12.80;99.90
26342;DHT22;14054;50.108;8.640;2023-04-29T02:21:46;12.90;99.90
26342;DHT22;14054;50.108;8.640;2023-04-29T02:24:12;12.90;99.90
26342;DHT22;14054;50.108;8.640;2023-04-29T02:26:37;12.90;99.90
26342;DHT22;14054;50.108;8.640;2023-04-29T02:29:03;13.00;99.90
26342;DHT22;14054;50.108;8.640;2023-04-29T02:31:28;13.00;99.90
26342;DHT22;14054;50.108;8.640;2023-04-29T02:33:54;13.00;99.90
26342;DHT22;14054;50.108;8.640;2023-04-29T02:36:19;13.00;99.90
26342;DHT22;14054;50.108;8.640;2023-04-29T02:38:45;13.00;99.90
26342;DHT22;14054;50.108;8.640;2023-04-29T02:41:15;13.00;99.90
26342;DHT22;14054;50.108;8.640;2023-04-29T02:43:40;13.00;99.90
26342;DHT22;14054;50.108;8.640;2023-04-29T02:46:05;13.00;99.90
26342;DHT22;14054;50.108;8.640;2023-04-29T02:48:31;13.00;99.90
26342;DHT22;14054;50.108;8.640;2023-04-29T02:50:56;13.00;99.90
26342;DHT22;14054;50.108;8.640;2023-04-29T02:53:22;13.00;99.90
26342;DHT22;14054;50.108;8.640;2023-04-29T02:55:47;13.00;99.90
26342;DHT22;14054;50.108;8.640;2023-04-29T02:58:13;13.00;99.90
26342;DHT22;14054;50.108;8.640;2023-04-29T03:00:39;13.00;99.90
26342;DHT22;14054;50.108;8.640;2023-04-29T03:03:05;13.10;99.90
26342;DHT22;14054;50.108;8.640;2023-04-29T03:05:30;13.10;99.90
26342;DHT22;14054;50.108;8.640;2023-04-29T03:07:56;13.10;99.90
26342;DHT22;14054;50.108;8.640;2023-04-29T03:10:21;13.10;99.90
26342;DHT22;14054;50.108;8.640;2023-04-29T03:12:47;13.10;99.90
26342;DHT22;14054;50.108;8.640;2023-04-29T03:15:12;13.10;99.90
26342;DHT22;14054;50.108;8.640;2023-04-29T03:17:38;13.00;99.90
26342;DHT22;14054;50.108;8.640;2023-04-29T03:20:03;13.10;99.90
26342;DHT22;14054;50.108;8.640;2023-04-29T03:22:29;13.10;99.90
26342;DHT22;14054;50.108;8.640;2023-04-29T03:24:54;13.10;99.90
26342;DHT22;14054;50.108;8.640;2023-04-29T03:27:20;13.10;99.90
26342;DHT22;14054;50.108;8.640;2023-04-29T03:29:45;13.10;99.90
26342;DHT22;14054;50.108;8.640;2023-04-29T03:32:11;13.00;99.90
26342;DHT22;14054;50.108;8.640;2023-04-29T03:34:36;12.90;99.90
26342;DHT22;14054;50.108;8.640;2023-04-29T03:37:01;12.90;99.90
26342;DHT22;14054;50.108;8.640;2023-04-29T03:39:27;12.80;99.90
26342;DHT22;14054;50.108;8.640;2023-04-29T03:41:56;12.80;99.90
26342;DHT22;14054;50.108;8.640;2023-04-29T03:44:22;12.80;99.90
26342;DHT22;14054;50.108;8.640;2023-04-29T03:46:48;12.70;99.90
26342;DHT22;14054;50.108;8.640;2023-04-29T03:49:13;12.70;99.90
26342;DHT22;14054;50.108;8.640;2023-04-29T03:51:38;12.70;99.90
26342;DHT22;14054;50.108;8.640;2023-04-29T03:54:04;12.60;99.90
26342;DHT22;14054;50.108;8.640;2023-04-29T03:56:29;12.70;99.90
26342;DHT22;14054;50.108;8.640;2023-04-29T03:58:55;12.80;99.90
26342;DHT22;14054;50.108;8.640;2023-04-29T04:01:20;12.80;99.90
26342;DHT22;14054;50.108;8.640;2023-04-29T04:03:46;12.80;99.90
26342;DHT22;14054;50.108;8.640;2023-04-29T04:06:12;12.80;99.90
26342;DHT22;14054;50.108;8.640;2023-04-29T04:08:37;12.80;99.90
26342;DHT22;14054;50.108;8.640;2023-04-29T04:11:05;12.80;99.90
26342;DHT22;14054;50.108;8.640;2023-04-29T04:13:31;12.80;99.90
26342;DHT22;14054;50.108;8.640;2023-04-29T04:15:56;12.70;99.90
26342;DHT22;14054;50.108;8.640;2023-04-29T04:18:22;12.70;99.90
26342;DHT22;14054;50.108;8.640;2023-04-29T04:20:47;12.80;99.90
26342;DHT22;14054;50.108;8.640;2023-04-29T04:23:13;12.70;99.90
26342;DHT22;14054;50.108;8.640;2023-04-29T04:25:43;12.60;99.90
26342;DHT22;14054;50.108;8.640;2023-04-29T04:28:09;12.60;99.90
26342;DHT22;14054;50.108;8.640;2023-04-29T04:30:34;12.60;99.90
26342;DHT22;14054;50.108;8.640;2023-04-29T04:33:00;12.50;99.90
26342;DHT22;14054;50.108;8.640;2023-04-29T04:35:25;12.50;99.90
26342;DHT22;14054;50.108;8.640;2023-04-29T04:37:51;12.40;99.90
26342;DHT22;14054;50.108;8.640;2023-04-29T04:40:16;12.40;99.90
26342;DHT22;14054;50.108;8.640;2023-04-29T04:42:42;12.40;99.90
26342;DHT22;14054;50.108;8.640;2023-04-29T04:45:07;12.40;99.90
26342;DHT22;14054;50.108;8.640;2023-04-29T04:47:35;12.40;99.90
26342;DHT22;14054;50.108;8.640;2023-04-29T04:50:01;12.30;99.90
26342;DHT22;14054;50.108;8.640;2023-04-29T04:52:26;12.40;99.90
26342;DHT22;14054;50.108;8.640;2023-04-29T04:54:52;12.30;99.90
26342;DHT22;14054;50.108;8.640;2023-04-29T04:57:17;12.30;99.90
26342;DHT22;14054;50.108;8.640;2023-04-29T04:59:42;12.40;99.90
26342;DHT22;14054;50.108;8.640;2023-04-29T05:02:08;12.40;99.90
26342;DHT22;14054;50.108;8.640;2023-04-29T05:04:33;12.40;99.90
26342;DHT22;14054;50.108;8.640;2023-04-29T05:06:59;12.30;99.90
26342;DHT22;14054;50.108;8.640;2023-04-29T05:09:25;12.30;99.90
26342;DHT22;14054;50.108;8.640;2023-04-29T05:11:51;12.40;99.90
26342;DHT22;14054;50.108;8.640;2023-04-29T05:14:16;12.40;99.90
26342;DHT22;14054;50.108;8.640;2023-04-29T05:16:42;12.50;99.90
26342;DHT22;14054;50.108;8.640;2023-04-29T05:19:09;12.50;99.90
26342;DHT22;14054;50.108;8.640;2023-04-29T05:21:35;12.60;99.90
26342;DHT22;14054;50.108;8.640;2023-04-29T05:24:00;12.60;99.90
26342;DHT22;14054;50.108;8.640;2023-04-29T05:26:26;12.60;99.90
26342;DHT22;14054;50.108;8.640;2023-04-29T05:28:51;12.70;99.90
26342;DHT22;14054;50.108;8.640;2023-04-29T05:31:16;12.70;99.90
26342;DHT22;14054;50.108;8.640;2023-04-29T05:33:42;12.70;99.90
26342;DHT22;14054;50.108;8.640;2023-04-29T05:36:07;12.70;99.90
26342;DHT22;14054;50.108;8.640;2023-04-29T05:38:33;12.80;99.90
26342;DHT22;14054;50.108;8.640;2023-04-29T05:40:58;12.90;99.90
26342;DHT22;14054;50.108;8.640;2023-04-29T05:43:23;12.90;99.90
26342;DHT22;14054;50.108;8.640;2023-04-29T05:45:49;13.00;99.90
26342;DHT22;14054;50.108;8.640;2023-04-29T05:48:15;13.00;99.90
26342;DHT22;14054;50.108;8.640;2023-04-29T05:50:40;13.00;99.90
26342;DHT22;14054;50.108;8.640;2023-04-29T05:53:06;13.00;99.90
26342;DHT22;14054;50.108;8.640;2023-04-29T05:55:31;13.10;99.90
26342;DHT22;14054;50.108;8.640;2023-04-29T05:57:57;13.20;99.90
26342;DHT22;14054;50.108;8.640;2023-04-29T06:00:22;13.10;99.90
26342;DHT22;14054;50.108;8.640;2023-04-29T06:02:48;13.20;99.90
26342;DHT22;14054;50.108;8.640;2023-04-29T06:05:13;13.30;99.90
26342;DHT22;14054;50.108;8.640;2023-04-29T06:07:39;13.40;99.90
26342;DHT22;14054;50.108;8.640;2023-04-29T06:10:05;13.50;99.90
26342;DHT22;14054;50.108;8.640;2023-04-29T06:12:31;13.60;99.90
26342;DHT22;14054;50.108;8.640;2023-04-29T06:14:56;13.60;99.90
26342;DHT22;14054;50.108;8.640;2023-04-29T06:17:23;13.60;99.90
26342;DHT22;14054;50.108;8.640;2023-04-29T06:19:49;13.60;99.90
26342;DHT22;14054;50.108;8.640;2023-04-29T06:22:14;13.50;99.90
26342;DHT22;14054;50.108;8.640;2023-04-29T06:24:40;13.60;99.90
26342;DHT22;14054;50.108;8.640;2023-04-29T06:27:05;13.60;99.90
26342;DHT22;14054;50.108;8.640;2023-04-29T06:29:31;13.60;99.90
26342;DHT22;14054;50.108;8.640;2023-04-29T06:31:56;13.70;99.90
26342;DHT22;14054;50.108;8.640;2023-04-29T06:34:22;13.70;99.90
26342;DHT22;14054;50.108;8.640;2023-04-29T06:36:47;13.80;99.90
26342;DHT22;14054;50.108;8.640;2023-04-29T06:39:12;14.10;99.90
26342;DHT22;14054;50.108;8.640;2023-04-29T06:41:38;14.10;99.90
26342;DHT22;14054;50.108;8.640;2023-04-29T06:44:05;14.20;99.90
26342;DHT22;14054;50.108;8.640;2023-04-29T06:46:30;14.20;99.90
26342;DHT22;14054;50.108;8.640;2023-04-29T06:48:56;14.20;99.90
26342;DHT22;14054;50.108;8.640;2023-04-29T06:51:21;14.20;99.90
26342;DHT22;14054;50.108;8.640;2023-04-29T06:53:46;14.20;99.90
26342;DHT22;14054;50.108;8.640;2023-04-29T06:56:12;14.20;99.90
26342;DHT22;14054;50.108;8.640;2023-04-29T06:58:37;14.10;99.90
26342;DHT22;14054;50.108;8.640;2023-04-29T07:01:03;14.00;99.90
26342;DHT22;14054;50.108;8.640;2023-04-29T07:03:30;13.90;99.90
26342;DHT22;14054;50.108;8.640;2023-04-29T07:05:55;13.80;99.90
26342;DHT22;14054;50.108;8.640;2023-04-29T07:08:20;13.70;99.90
26342;DHT22;14054;50.108;8.640;2023-04-29T07:10:55;13.70;99.90
26342;DHT22;14054;50.108;8.640;2023-04-29T07:13:21;13.70;99.90
26342;DHT22;14054;50.108;8.640;2023-04-29T07:15:46;13.70;99.90
26342;DHT22;14054;50.108;8.640;2023-04-29T07:18:12;13.70;99.90
26342;DHT22;14054;50.108;8.640;2023-04-29T07:20:38;13.60;99.90
26342;DHT22;14054;50.108;8.640;2023-04-29T07:23:03;13.60;99.90
26342;DHT22;14054;50.108;8.640;2023-04-29T07:25:28;13.50;99.90
26342;DHT22;14054;50.108;8.640;2023-04-29T07:27:55;13.50;99.90
26342;DHT22;14054;50.108;8.640;2023-04-29T07:30:21;13.50;99.90
26342;DHT22;14054;50.108;8.640;2023-04-29T07:32:47;13.50;99.90
26342;DHT22;14054;50.108;8.640;2023-04-29T07:35:13;13.50;99.90
26342;DHT22;14054;50.108;8.640;2023-04-29T07:37:38;13.40;99.90
26342;DHT22;14054;50.108;8.640;2023-04-29T07:40:04;13.30;99.90
26342;DHT22;14054;50.108;8.640;2023-04-29T07:42:29;13.40;99.90
26342;DHT22;14054;50.108;8.640;2023-04-29T07:44:55;13.40;99.90
26342;DHT22;14054;50.108;8.640;2023-04-29T07:47:21;13.40;99.90
26342;DHT22;14054;50.108;8.640;2023-04-29T07:49:46;13.30;99.90
26342;DHT22;14054;50.108;8.640;2023-04-29T07:52:11;13.30;99.90
26342;DHT22;14054;50.108;8.640;2023-04-29T07:54:37;13.30;99.90
26342;DHT22;14054;50.108;8.640;2023-04-29T07:57:02;13.30;99.90
26342;DHT22;14054;50.108;8.640;2023-04-29T07:59:29;13.30;99.90
26342;DHT22;14054;50.108;8.640;2023-04-29T08:01:55;13.40;99.90
26342;DHT22;14054;50.108;8.640;2023-04-29T08:04:20;13.40;99.90
26342;DHT22;14054;50.108;8.640;2023-04-29T08:06:46;13.60;99.90
26342;DHT22;14054;50.108;8.640;2023-04-29T08:09:11;13.60;99.90
26342;DHT22;14054;50.108;8.640;2023-04-29T08:11:37;13.50;99.90
26342;DHT22;14054;50.108;8.640;2023-04-29T08:14:04;13.60;99.90
26342;DHT22;14054;50.108;8.640;2023-04-29T08:16:29;13.50;99.90
26342;DHT22;14054;50.108;8.640;2023-04-29T08:18:56;13.40;99.90
26342;DHT22;14054;50.108;8.640;2023-04-29T08:21:21;13.40;99.90
26342;DHT22;14054;50.108;8.640;2023-04-29T08:23:47;13.30;99.90
26342;DHT22;14054;50.108;8.640;2023-04-29T08:26:13;13.30;99.90
26342;DHT22;14054;50.108;8.640;2023-04-29T08:28:38;13.20;99.90
26342;DHT22;14054;50.108;8.640;2023-04-29T08:31:04;13.20;99.90
26342;DHT22;14054;50.108;8.640;2023-04-29T08:33:37;13.30;99.90
26342;DHT22;14054;50.108;8.640;2023-04-29T08:36:03;13.30;99.90
26342;DHT22;14054;50.108;8.640;2023-04-29T08:38:28;13.30;99.90
26342;DHT22;14054;50.108;8.640;2023-04-29T08:40:54;13.30;99.90
26342;DHT22;14054;50.108;8.640;2023-04-29T08:43:21;13.50;99.90
26342;DHT22;14054;50.108;8.640;2023-04-29T08:45:47;13.50;99.90
26342;DHT22;14054;50.108;8.640;2023-04-29T08:48:12;13.40;99.90
26342;DHT22;14054;50.108;8.640;2023-04-29T08:50:39;13.40;99.90
26342;DHT22;14054;50.108;8.640;2023-04-29T08:53:05;13.40;99.90
26342;DHT22;14054;50.108;8.640;2023-04-29T08:55:35;13.30;99.90
26342;DHT22;14054;50.108;8.640;2023-04-29T08:58:01;13.20;99.90
26342;DHT22;14054;50.108;8.640;2023-04-29T09:00:27;13.10;99.90
26342;DHT22;14054;50.108;8.640;2023-04-29T09:02:52;13.00;99.90
26342;DHT22;14054;50.108;8.640;2023-04-29T09:05:19;13.00;99.90
26342;DHT22;14054;50.108;8.640;2023-04-29T09:07:46;13.00;99.90
26342;DHT22;14054;50.108;8.640;2023-04-29T09:10:11;13.00;99.90
26342;DHT22;14054;50.108;8.640;2023-04-29T09:12:37;13.20;99.90
26342;DHT22;14054;50.108;8.640;2023-04-29T09:15:02;13.30;99.90
26342;DHT22;14054;50.108;8.640;2023-04-29T09:17:44;13.40;99.90
26342;DHT22;14054;50.108;8.640;2023-04-29T09:25:20;13.60;99.90
26342;DHT22;14054;50.108;8.640;2023-04-29T09:27:45;13.60;99.90
26342;DHT22;14054;50.108;8.640;2023-04-29T09:30:11;13.60;99.90
26342;DHT22;14054;50.108;8.640;2023-04-29T09:32:37;13.50;99.90
26342;DHT22;14054;50.108;8.640;2023-04-29T09:37:47;13.60;99.90
26342;DHT22;14054;50.108;8.640;2023-04-29T09:40:31;13.50;99.90
26342;DHT22;14054;50.108;8.640;2023-04-29T09:42:57;13.50;99.90
26342;DHT22;14054;50.108;8.640;2023-04-29T09:45:35;13.50;99.90
26342;DHT22;14054;50.108;8.640;2023-04-29T09:48:04;13.50;99.90
26342;DHT22;14054;50.108;8.640;2023-04-29T09:50:30;13.50;99.90
26342;DHT22;14054;50.108;8.640;2023-04-29T09:52:57;13.50;99.90
26342;DHT22;14054;50.108;8.640;2023-04-29T09:55:22;13.60;99.90
26342;DHT22;14054;50.108;8.640;2023-04-29T09:57:47;13.50;99.90
26342;DHT22;14054;50.108;8.640;2023-04-29T10:00:13;13.60;99.90
26342;DHT22;14054;50.108;8.640;2023-04-29T10:02:40;13.70;99.90
26342;DHT22;14054;50.108;8.640;2023-04-29T10:05:06;13.60;99.90
26342;DHT22;14054;50.108;8.640;2023-04-29T10:07:32;13.60;99.90
26342;DHT22;14054;50.108;8.640;2023-04-29T10:09:58;13.50;99.90
26342;DHT22;14054;50.108;8.640;2023-04-29T10:12:23;13.40;99.90
26342;DHT22;14054;50.108;8.640;2023-04-29T10:15:38;13.50;99.90
26342;DHT22;14054;50.108;8.640;2023-04-29T10:17:42;13.50;99.90
26342;DHT22;14054;50.108;8.640;2023-04-29T10:20:09;13.50;99.90
26342;DHT22;14054;50.108;8.640;2023-04-29T10:22:44;13.60;99.90
26342;DHT22;14054;50.108;8.640;2023-04-29T10:25:11;13.80;99.90
26342;DHT22;14054;50.108;8.640;2023-04-29T10:27:36;13.70;99.90
26342;DHT22;14054;50.108;8.640;2023-04-29T10:30:02;13.60;99.90
26342;DHT22;14054;50.108;8.640;2023-04-29T10:32:29;13.80;99.90
26342;DHT22;14054;50.108;8.640;2023-04-29T10:34:55;13.70;99.90
26342;DHT22;14054;50.108;8.640;2023-04-29T10:37:21;13.80;99.90
26342;DHT22;14054;50.108;8.640;2023-04-29T10:39:52;14.00;99.90
26342;DHT22;14054;50.108;8.640;2023-04-29T10:42:29;14.20;99.90
26342;DHT22;14054;50.108;8.640;2023-04-29T10:45:15;14.30;99.90
26342;DHT22;14054;50.108;8.640;2023-04-29T10:47:41;14.40;99.90
26342;DHT22;14054;50.108;8.640;2023-04-29T10:50:06;14.80;99.90
26342;DHT22;14054;50.108;8.640;2023-04-29T10:52:49;15.20;99.90
26342;DHT22;14054;50.108;8.640;2023-04-29T10:55:15;15.70;99.90
26342;DHT22;14054;50.108;8.640;2023-04-29T10:57:41;15.70;99.90
26342;DHT22;14054;50.108;8.640;2023-04-29T11:00:07;16.00;99.90
26342;DHT22;14054;50.108;8.640;2023-04-29T11:02:46;16.20;99.90
26342;DHT22;14054;50.108;8.640;2023-04-29T11:05:11;16.30;99.90
26342;DHT22;14054;50.108;8.640;2023-04-29T11:07:37;16.50;99.90
26342;DHT22;14054;50.108;8.640;2023-04-29T11:10:02;16.80;99.90
26342;DHT22;14054;50.108;8.640;2023-04-29T11:12:28;16.60;99.90
26342;DHT22;14054;50.108;8.640;2023-04-29T11:14:53;16.10;99.90
26342;DHT22;14054;50.108;8.640;2023-04-29T11:17:27;15.80;99.90
26342;DHT22;14054;50.108;8.640;2023-04-29T11:19:59;15.70;99.90
26342;DHT22;14054;50.108;8.640;2023-04-29T11:22:26;15.90;99.90
26342;DHT22;14054;50.108;8.640;2023-04-29T11:24:52;16.00;99.90
26342;DHT22;14054;50.108;8.640;2023-04-29T11:27:18;15.90;99.90
26342;DHT22;14054;50.108;8.640;2023-04-29T11:29:48;15.70;99.90
26342;DHT22;14054;50.108;8.640;2023-04-29T11:32:14;15.80;99.90
26342;DHT22;14054;50.108;8.640;2023-04-29T11:34:40;15.60;99.90
26342;DHT22;14054;50.108;8.640;2023-04-29T11:37:05;15.50;99.90
26342;DHT22;14054;50.108;8.640;2023-04-29T11:39:34;15.30;99.90
26342;DHT22;14054;50.108;8.640;2023-04-29T11:42:04;15.30;99.90
26342;DHT22;14054;50.108;8.640;2023-04-29T11:44:30;15.20;99.90
26342;DHT22;14054;50.108;8.640;2023-04-29T11:47:01;15.10;99.90
26342;DHT22;14054;50.108;8.640;2023-04-29T11:49:29;15.10;99.90
26342;DHT22;14054;50.108;8.640;2023-04-29T11:51:54;15.00;99.90
26342;DHT22;14054;50.108;8.640;2023-04-29T11:54:20;15.00;99.90
26342;DHT22;14054;50.108;8.640;2023-04-29T11:56:45;15.20;99.90
26342;DHT22;14054;50.108;8.640;2023-04-29T11:59:10;15.60;99.90
26342;DHT22;14054;50.108;8.640;2023-04-29T12:01:36;15.70;99.90
26342;DHT22;14054;50.108;8.640;2023-04-29T12:04:02;15.80;99.90
26342;DHT22;14054;50.108;8.640;2023-04-29T12:06:29;15.80;99.90
26342;DHT22;14054;50.108;8.640;2023-04-29T12:08:57;15.70;99.90
26342;DHT22;14054;50.108;8.640;2023-04-29T12:11:22;15.60;99.90
26342;DHT22;14054;50.108;8.640;2023-04-29T12:13:49;15.70;99.90
26342;DHT22;14054;50.108;8.640;2023-04-29T12:16:22;15.70;99.90
26342;DHT22;14054;50.108;8.640;2023-04-29T12:18:53;15.90;99.90
26342;DHT22;14054;50.108;8.640;2023-04-29T12:21:18;16.00;99.90
26342;DHT22;14054;50.108;8.640;2023-04-29T12:23:45;16.20;99.90
26342;DHT22;14054;50.108;8.640;2023-04-29T12:26:11;15.70;99.90
26342;DHT22;14054;50.108;8.640;2023-04-29T12:28:39;15.60;99.90
26342;DHT22;14054;50.108;8.640;2023-04-29T12:31:05;15.40;99.90
26342;DHT22;14054;50.108;8.640;2023-04-29T12:33:33;15.20;99.90
26342;DHT22;14054;50.108;8.640;2023-04-29T12:35:58;15.10;99.90
26342;DHT22;14054;50.108;8.640;2023-04-29T12:38:24;15.10;99.90
26342;DHT22;14054;50.108;8.640;2023-04-29T12:40:57;15.10;99.90
26342;DHT22;14054;50.108;8.640;2023-04-29T12:43:29;15.00;99.90
26342;DHT22;14054;50.108;8.640;2023-04-29T12:46:04;15.00;99.90
26342;DHT22;14054;50.108;8.640;2023-04-29T12:48:30;15.00;99.90
26342;DHT22;14054;50.108;8.640;2023-04-29T12:50:57;15.10;99.90
26342;DHT22;14054;50.108;8.640;2023-04-29T12:53:24;15.00;99.90
26342;DHT22;14054;50.108;8.640;2023-04-29T12:55:49;15.00;99.90
26342;DHT22;14054;50.108;8.640;2023-04-29T12:58:15;15.10;99.90
26342;DHT22;14054;50.108;8.640;2023-04-29T13:00:41;15.10;99.90
26342;DHT22;14054;50.108;8.640;2023-04-29T13:03:06;15.10;99.90
26342;DHT22;14054;50.108;8.640;2023-04-29T13:05:32;14.90;99.90
26342;DHT22;14054;50.108;8.640;2023-04-29T13:07:58;15.00;99.90
26342;DHT22;14054;50.108;8.640;2023-04-29T13:10:23;15.00;99.90
26342;DHT22;14054;50.108;8.640;2023-04-29T13:12:49;15.10;99.90
26342;DHT22;14054;50.108;8.640;2023-04-29T13:15:14;15.10;99.90
26342;DHT22;14054;50.108;8.640;2023-04-29T13:17:40;15.20;99.90
26342;DHT22;14054;50.108;8.640;2023-04-29T13:20:05;15.30;99.90
26342;DHT22;14054;50.108;8.640;2023-04-29T13:22:32;15.40;99.90
26342;DHT22;14054;50.108;8.640;2023-04-29T13:24:57;15.30;99.90
26342;DHT22;14054;50.108;8.640;2023-04-29T13:27:23;15.40;99.90
26342;DHT22;14054;50.108;8.640;2023-04-29T13:29:48;15.60;99.90
26342;DHT22;14054;50.108;8.640;2023-04-29T13:32:14;15.70;99.90
26342;DHT22;14054;50.108;8.640;2023-04-29T13:34:40;15.80;99.90
26342;DHT22;14054;50.108;8.640;2023-04-29T13:37:10;15.70;99.90
26342;DHT22;14054;50.108;8.640;2023-04-29T13:39:35;15.80;99.90
26342;DHT22;14054;50.108;8.640;2023-04-29T13:42:01;15.90;99.90
26342;DHT22;14054;50.108;8.640;2023-04-29T13:44:28;15.90;99.90
26342;DHT22;14054;50.108;8.640;2023-04-29T13:46:53;15.90;99.90
26342;DHT22;14054;50.108;8.640;2023-04-29T13:49:19;16.30;99.90
26342;DHT22;14054;50.108;8.640;2023-04-29T13:51:45;16.30;99.90
26342;DHT22;14054;50.108;8.640;2023-04-29T13:54:10;16.30;99.90
26342;DHT22;14054;50.108;8.640;2023-04-29T13:56:36;16.20;99.90
26342;DHT22;14054;50.108;8.640;2023-04-29T13:59:01;16.00;99.90
26342;DHT22;14054;50.108;8.640;2023-04-29T14:01:26;16.10;99.90
26342;DHT22;14054;50.108;8.640;2023-04-29T14:03:52;16.40;99.90
26342;DHT22;14054;50.108;8.640;2023-04-29T14:06:18;16.70;99.90
26342;DHT22;14054;50.108;8.640;2023-04-29T14:08:43;16.70;99.90
26342;DHT22;14054;50.108;8.640;2023-04-29T14:11:08;16.70;99.90
26342;DHT22;14054;50.108;8.640;2023-04-29T14:13:34;16.60;99.90
26342;DHT22;14054;50.108;8.640;2023-04-29T14:15:59;16.50;99.90
26342;DHT22;14054;50.108;8.640;2023-04-29T14:18:27;16.70;99.90
26342;DHT22;14054;50.108;8.640;2023-04-29T14:20:54;16.70;99.90
26342;DHT22;14054;50.108;8.640;2023-04-29T14:23:19;16.80;99.90
26342;DHT22;14054;50.108;8.640;2023-04-29T14:25:45;17.00;99.90
26342;DHT22;14054;50.108;8.640;2023-04-29T14:28:11;17.20;99.90
26342;DHT22;14054;50.108;8.640;2023-04-29T14:30:37;17.20;99.90
26342;DHT22;14054;50.108;8.640;2023-04-29T14:33:02;17.10;99.90
26342;DHT22;14054;50.108;8.640;2023-04-29T14:35:28;17.00;99.90
26342;DHT22;14054;50.108;8.640;2023-04-29T14:37:54;16.80;99.90
26342;DHT22;14054;50.108;8.640;2023-04-29T14:40:20;16.80;99.90
26342;DHT22;14054;50.108;8.640;2023-04-29T14:42:45;16.70;99.90
26342;DHT22;14054;50.108;8.640;2023-04-29T14:45:11;16.70;99.90
26342;DHT22;14054;50.108;8.640;2023-04-29T14:47:36;16.70;99.90
26342;DHT22;14054;50.108;8.640;2023-04-29T14:50:02;16.50;99.90
26342;DHT22;14054;50.108;8.640;2023-04-29T14:52:28;16.20;99.90
26342;DHT22;14054;50.108;8.640;2023-04-29T14:54:53;16.20;99.90
26342;DHT22;14054;50.108;8.640;2023-04-29T14:57:19;16.40;99.90
26342;DHT22;14054;50.108;8.640;2023-04-29T14:59:45;16.30;99.90
26342;DHT22;14054;50.108;8.640;2023-04-29T15:02:10;16.10;99.90
26342;DHT22;14054;50.108;8.640;2023-04-29T15:04:36;16.00;99.90
26342;DHT22;14054;50.108;8.640;2023-04-29T15:07:02;16.30;99.90
26342;DHT22;14054;50.108;8.640;2023-04-29T15:09:27;16.20;99.90
26342;DHT22;14054;50.108;8.640;2023-04-29T15:11:53;16.20;99.90
26342;DHT22;14054;50.108;8.640;2023-04-29T15:14:18;16.20;99.90
26342;DHT22;14054;50.108;8.640;2023-04-29T15:16:44;15.90;99.90
26342;DHT22;14054;50.108;8.640;2023-04-29T15:19:09;15.80;99.90
26342;DHT22;14054;50.108;8.640;2023-04-29T15:21:35;15.80;99.90
26342;DHT22;14054;50.108;8.640;2023-04-29T15:24:00;15.70;99.90
26342;DHT22;14054;50.108;8.640;2023-04-29T15:26:27;15.60;99.90
26342;DHT22;14054;50.108;8.640;2023-04-29T15:28:52;15.40;99.90
26342;DHT22;14054;50.108;8.640;2023-04-29T15:31:18;15.30;99.90
26342;DHT22;14054;50.108;8.640;2023-04-29T15:33:43;15.30;99.90
26342;DHT22;14054;50.108;8.640;2023-04-29T15:36:09;15.00;99.90
26342;DHT22;14054;50.108;8.640;2023-04-29T15:38:35;15.00;99.90
26342;DHT22;14054;50.108;8.640;2023-04-29T15:41:00;14.90;99.90
26342;DHT22;14054;50.108;8.640;2023-04-29T15:43:27;14.70;99.90